Latest Weather Observations for Alice Springs Airport

IDD60801

Issued at 11:31 pm CST Tuesday 12 December 2017 (issued every 30 minutes, with the page automatically refreshed every 10 minutes)

About weather observations | Map of weather stations | Latest weather observations for NT | Other Formats
Station Details ID: 015590 Name: ALICE SPRINGS AIRPORT Lat: -23.80 Lon: 133.89 Height: 546.0 m
Data from the previous 72 hours. | See also: Recent months at Alice Springs Airport
Date/Time
CST
Temp
°C
App
Temp
°C
Dew
Point
°C
Rel
Hum
%
Delta-T
°C
Wind Press
QNH
hPa
Press
MSL
hPa
Rain since
9am
mm
Dir  Spd
km/h
Gust
km/h
Spd
kts
Gust
kts
12/11:30pm 23.2 19.5 -4.8 15 11.9 NNW 6 7 3 4 1011.1 1007.2 0.0
12/11:00pm 24.9 22.4 -4.4 14 12.8 CALM 0 0 0 0 1011.3 1007.4 0.0
12/10:30pm 24.8 20.8 -5.5 13 12.9 NW 7 9 4 5 1011.2 1007.3 0.0
12/10:00pm 25.9 23.3 -4.6 13 13.4 CALM 0 0 0 0 1011.0 1007.1 0.0
12/09:30pm 26.3 22.3 -5.3 12 13.7 ESE 7 13 4 7 1010.8 1006.9 0.0
12/09:00pm 28.9 24.1 -5.7 10 15.3 SSE 11 11 6 6 1010.6 1006.7 0.0
12/08:30pm 31.1 26.7 -5.5 9 16.5 ESE 9 11 5 6 1010.5 1006.6 0.0
12/08:00pm 32.5 27.9 -4.4 9 17.1 ESE 11 11 6 6 1010.3 1006.4 0.0
12/07:30pm 32.1 26.9 -6.3 8 17.2 SE 13 13 7 7 1010.2 1006.3 0.0
12/07:00pm 35.7 31.0 -5.4 7 19.2 SSE 11 15 6 8 1010.1 1006.2 0.0
12/06:30pm 37.7 32.1 -6.0 6 20.5 S 15 20 8 11 1009.8 1006.0 0.0
12/06:00pm 38.3 32.8 -5.5 6 20.8 S 15 24 8 13 1009.6 1005.7 0.0
12/05:30pm 38.8 33.3 -5.2 6 21.1 SSW 15 24 8 13 1009.5 1005.6 0.0
12/05:00pm 39.2 33.0 -4.9 6 21.2 SSE 19 28 10 15 1009.5 1005.6 0.0
12/04:30pm 38.8 33.5 -7.6 5 21.4 SSW 13 20 7 11 1009.6 1005.7 0.0
12/04:00pm 39.1 32.5 -7.4 5 21.5 SSW 20 32 11 17 1009.7 1005.9 0.0
12/03:30pm 39.5 34.6 -7.1 5 21.8 WSW 11 19 6 10 1009.9 1006.1 0.0
12/03:00pm 38.9 33.6 -7.5 5 21.5 NNW 13 17 7 9 1010.4 1006.5 0.0
12/02:30pm 39.2 33.9 -7.3 5 21.6 N 13 24 7 13 1010.6 1006.7 0.0
12/02:00pm 38.5 33.5 -7.8 5 21.2 NNW 11 17 6 9 1011.0 1007.1 0.0
12/01:30pm 38.2 33.8 -5.6 6 20.7 WNW 9 19 5 10 1011.5 1007.7 0.0
12/01:00pm 36.8 31.6 -6.6 6 20.0 NNW 13 20 7 11 1011.8 1008.0 0.0
12/12:30pm 36.8 32.5 -4.6 7 19.7 SE 9 20 5 11 1012.6 1008.7 0.0
12/12:00pm 35.6 29.3 -5.5 7 19.1 NW 19 28 10 15 1013.1 1009.3 0.0
12/11:30am 36.6 30.6 -3.0 8 19.3 E 19 28 10 15 1013.5 1009.7 0.0
12/11:00am 36.5 30.5 -1.4 9 18.9 E 20 30 11 16 1014.0 1010.1 0.0
12/10:30am 34.7 27.6 -1.4 10 17.8 E 26 33 14 18 1014.4 1010.5 0.0
12/10:00am 34.5 26.8 -0.2 11 17.5 E 30 39 16 21 1014.5 1010.6 0.0
12/09:30am 32.9 25.4 0.9 13 16.2 E 30 39 16 21 1014.9 1011.1 0.0
12/09:00am 32.4 25.2 0.5 13 16.0 E 28 37 15 20 1015.2 1011.4 0.0
12/08:30am 31.0 24.8 -0.6 13 15.4 E 22 32 12 17 1015.4 1011.6 -
12/08:00am 30.0 24.8 -2.5 12 15.3 E 15 26 8 14 1015.4 1011.6 -
12/07:30am 27.3 24.9 -3.5 13 13.9 CALM 0 0 0 0 1015.5 1011.7 -
12/07:00am 23.8 20.3 -2.7 17 11.8 NW 6 7 3 4 1015.4 1011.6 -
12/06:30am 20.8 17.4 -1.7 22 10.0 NW 6 7 3 4 1015.0 1011.2 -
12/06:00am 17.5 13.6 -1.7 27 8.3 W 9 11 5 6 1015.0 1011.2 -
12/05:30am 17.4 13.5 -1.8 27 8.2 W 9 11 5 6 1014.4 1010.5 -
12/05:00am 17.6 13.9 -2.6 25 8.5 WNW 7 9 4 5 1014.1 1010.2 -
12/04:30am 17.9 14.3 -2.4 25 8.6 NW 7 7 4 4 1013.7 1009.9 -
12/04:00am 18.3 14.2 -3.2 23 9.0 NW 9 11 5 6 1013.6 1009.8 -
12/03:30am 17.3 13.1 -4.0 23 8.7 NW 9 11 5 6 1013.4 1009.6 -
12/03:00am 18.0 14.2 -3.4 23 8.9 NW 7 9 4 5 1013.2 1009.4 0.0
12/02:30am 17.9 13.7 -4.1 22 9.0 NNW 9 9 5 5 1013.4 1009.6 -
12/02:00am 17.9 13.7 -4.1 22 9.0 W 9 11 5 6 1013.6 1009.8 -
12/01:30am 19.3 15.4 -4.9 19 9.9 WNW 7 9 4 5 1013.8 1010.0 -
12/01:00am 19.5 14.8 -4.7 19 10.0 WNW 11 13 6 7 1014.3 1010.4 -
12/12:30am 19.4 15.7 -4.8 19 9.9 WNW 6 9 3 5 1014.6 1010.7 -
12/12:00am 21.4 18.8 -4.6 17 10.9 CALM 0 0 0 0 1014.9 1011.1 -
 
Date/Time
CST
Temp
°C
App
Temp
°C
Dew
Point
°C
Rel
Hum
%
Delta-T
°C
Wind Press
QNH
hPa
Press
MSL
hPa
Rain since
9am
mm
Dir  Spd
km/h
Gust
km/h
Spd
kts
Gust
kts
11/11:30pm 21.7 19.1 -5.2 16 11.2 CALM 0 0 0 0 1015.0 1011.2 -
11/11:00pm 22.6 20.0 -5.3 15 11.7 CALM 0 0 0 0 1015.2 1011.4 -
11/10:30pm 23.8 20.3 -6.2 13 12.5 NNE 4 9 2 5 1015.3 1011.5 -
11/10:00pm 24.5 21.8 -5.7 13 12.8 CALM 0 6 0 3 1015.2 1011.4 -
11/09:30pm 25.5 21.5 -6.0 12 13.4 SE 7 9 4 5 1015.0 1011.2 -
11/09:00pm 27.2 23.2 -5.8 11 14.3 SE 7 7 4 4 1014.9 1011.1 0.0
11/08:30pm 27.4 22.1 -6.9 10 14.6 SSE 13 13 7 7 1014.6 1010.7 -
11/08:00pm 28.8 24.0 -5.8 10 15.2 SSE 11 13 6 7 1014.4 1010.5 -
11/07:30pm 29.6 24.7 -6.6 9 15.8 SSE 11 13 6 7 1014.1 1010.2 -
11/07:00pm 32.6 27.3 -7.6 7 17.7 SE 13 15 7 8 1013.7 1009.9 -
11/06:30pm 33.9 28.3 -6.7 7 18.3 SSE 15 22 8 12 1013.5 1009.7 -
11/06:00pm 34.5 28.5 -6.3 7 18.6 SE 17 22 9 12 1013.3 1009.5 -
11/05:30pm 34.8 28.7 -8.0 6 19.0 SE 17 26 9 14 1013.1 1009.3 -
11/05:00pm 35.7 29.6 -7.4 6 19.5 ESE 17 24 9 13 1012.9 1009.0 -
11/04:30pm 35.8 30.1 -7.3 6 19.5 ESE 15 26 8 14 1013.0 1009.1 -
11/04:00pm 36.5 31.6 -6.8 6 19.9 S 11 26 6 14 1013.2 1009.4 -
11/03:30pm 35.7 30.0 -7.4 6 19.5 ESE 15 32 8 17 1013.4 1009.6 0.0
11/03:00pm 35.4 29.7 -7.6 6 19.3 S 15 26 8 14 1013.7 1009.9 0.0
11/02:30pm 36.5 29.9 -6.8 6 19.9 SSE 20 35 11 19 1014.2 1010.3 -
11/02:00pm 36.2 30.0 -5.0 7 19.4 SSE 19 35 10 19 1014.6 1010.7 0.0
11/01:30pm 34.3 27.8 -6.4 7 18.5 ESE 20 30 11 16 1015.0 1011.2 0.0
11/01:00pm 34.8 29.0 -4.3 8 18.4 ESE 17 30 9 16 1015.4 1011.6 0.0
11/12:30pm 33.5 27.6 -5.2 8 17.8 ESE 17 30 9 16 1016.1 1012.2 0.0
11/12:00pm 33.0 27.3 -4.0 9 17.3 E 17 24 9 13 1016.7 1012.9 0.0
11/11:30am 33.5 27.2 -3.7 9 17.5 ESE 20 32 11 17 1017.1 1013.3 0.0
11/11:00am 32.7 27.1 -2.9 10 16.9 ESE 17 37 9 20 1017.5 1013.7 0.0
11/10:30am 32.5 25.9 -3.0 10 16.8 SE 22 35 12 19 1017.9 1014.0 0.0
11/10:00am 31.1 25.1 -2.8 11 16.0 ESE 19 30 10 16 1018.3 1014.5 0.0
11/09:30am 30.4 24.2 -3.3 11 15.6 ESE 20 28 11 15 1018.6 1014.8 0.0
11/09:00am 29.2 23.6 -3.1 12 14.9 E 17 26 9 14 1018.8 1015.0 0.0
11/08:30am 28.4 22.7 -3.7 12 14.5 ESE 17 24 9 13 1018.9 1015.1 0.0
11/08:00am 26.9 22.7 -3.8 13 13.8 ESE 9 15 5 8 1018.8 1015.0 0.0
11/07:30am 23.9 21.5 -3.4 16 12.0 CALM 0 0 0 0 1018.8 1015.0 0.0
11/07:00am 20.8 17.3 -1.7 22 10.0 WSW 7 9 4 5 1018.7 1014.9 0.0
11/06:30am 17.0 13.1 -1.6 28 8.0 W 9 11 5 6 1018.4 1014.6 0.0
11/06:00am 14.4 10.3 -3.4 29 7.2 NW 9 9 5 5 1018.0 1014.1 0.0
11/05:30am 13.7 9.2 -3.1 31 6.7 W 11 11 6 6 1017.6 1013.8 0.0
11/05:00am 14.8 10.6 -3.5 28 7.4 WNW 9 9 5 5 1017.1 1013.3 0.0
11/04:30am 15.2 11.4 -3.6 27 7.6 WNW 7 9 4 5 1016.8 1013.0 0.0
11/04:00am 16.3 12.2 -3.2 26 8.0 N 9 9 5 5 1016.7 1012.9 0.0
11/03:30am 15.8 11.9 -4.2 25 8.0 W 7 9 4 5 1016.8 1013.0 0.0
11/03:00am 16.5 12.2 -4.7 23 8.5 NW 9 11 5 6 1016.8 1013.0 0.0
11/02:30am 17.4 13.2 -3.9 23 8.7 NW 9 11 5 6 1016.8 1013.0 0.0
11/02:00am 16.9 13.0 -4.9 22 8.7 NW 7 7 4 4 1016.9 1013.1 0.0
11/01:30am 17.8 13.8 -5.4 20 9.3 NNW 7 7 4 4 1017.0 1013.2 0.0
11/01:00am 18.9 16.3 -5.2 19 9.8 CALM 0 0 0 0 1017.2 1013.4 0.0
11/12:30am 20.3 17.6 -5.5 17 10.5 CALM 0 0 0 0 1017.5 1013.7 0.0
11/12:00am 21.4 18.8 -5.4 16 11.1 CALM 0 0 0 0 1017.7 1013.9 0.0
 
Date/Time
CST
Temp
°C
App
Temp
°C
Dew
Point
°C
Rel
Hum
%
Delta-T
°C
Wind Press
QNH
hPa
Press
MSL
hPa
Rain since
9am
mm
Dir  Spd
km/h
Gust
km/h
Spd
kts
Gust
kts
10/11:30pm 20.9 16.9 -7.6 14 11.2 NE 6 7 3 4 1018.0 1014.1 0.0
10/11:00pm 21.8 18.6 -6.8 14 11.6 E 2 6 1 3 1018.1 1014.3 0.0
10/10:30pm 21.9 17.4 -6.8 14 11.6 SSE 9 11 5 6 1018.1 1014.3 0.0
10/10:00pm 23.2 18.3 -6.7 13 12.3 SSE 11 13 6 7 1018.2 1014.4 0.0
10/09:30pm 23.8 18.9 -7.3 12 12.7 SE 11 11 6 6 1017.9 1014.0 0.0
10/09:00pm 25.8 20.5 -6.9 11 13.7 SE 13 15 7 8 1017.3 1013.5 0.0
10/08:30pm 25.9 21.0 -6.8 11 13.7 SE 11 13 6 7 1017.1 1013.3 0.0
10/08:00pm 27.3 22.4 -6.9 10 14.5 SE 11 13 6 7 1016.9 1013.1 0.0
10/07:30pm 29.4 24.4 -8.2 8 15.9 SE 11 15 6 8 1016.4 1012.5 0.0
10/07:00pm 32.3 26.6 -7.8 7 17.5 SE 15 20 8 11 1016.0 1012.1 0.0
10/06:30pm 33.5 27.5 -7.0 7 18.1 SSE 17 22 9 12 1015.6 1011.8 0.0
10/06:00pm 33.9 28.1 -8.7 6 18.6 SSE 15 24 8 13 1015.2 1011.4 0.0
10/05:30pm 34.3 28.1 -8.4 6 18.8 S 17 26 9 14 1015.2 1011.4 0.0
10/05:00pm 34.7 28.9 -8.1 6 19.0 SE 15 26 8 14 1015.2 1011.4 0.0
10/04:30pm 34.2 28.0 -8.5 6 18.7 SSE 17 28 9 15 1015.4 1011.6 0.0
10/04:00pm 34.5 28.4 -8.2 6 18.9 SSE 17 28 9 15 1015.6 1011.8 0.0
10/03:30pm 34.1 28.1 -6.5 7 18.4 SE 17 30 9 16 1016.0 1012.1 0.0
10/03:00pm 34.6 29.0 -6.2 7 18.6 SE 15 30 8 16 1016.2 1012.3 0.0
10/02:30pm 34.8 28.9 -6.0 7 18.7 SSE 17 32 9 17 1016.4 1012.5 0.0
10/02:00pm 33.7 27.7 -6.8 7 18.2 E 17 30 9 16 1016.9 1013.1 0.0
10/01:30pm 32.9 26.6 -5.7 8 17.5 SE 19 32 10 17 1017.3 1013.5 0.0
10/01:00pm 32.8 27.3 -5.7 8 17.5 SSE 15 26 8 14 1017.9 1014.0 0.0
10/12:30pm 32.0 26.0 -6.3 8 17.1 SE 17 33 9 18 1018.4 1014.6 0.0
10/12:00pm 31.6 25.2 -5.1 9 16.6 ESE 20 41 11 22 1019.0 1015.2 0.0
10/11:30am 30.7 24.2 -5.8 9 16.2 ESE 20 32 11 17 1019.5 1015.7 0.0
10/11:00am 31.0 24.3 -4.1 10 16.2 ESE 22 33 12 18 1019.9 1016.1 0.0
10/10:30am 30.2 23.4 -4.8 10 15.8 ESE 22 37 12 20 1020.0 1016.2 0.0
10/10:00am 29.7 23.0 -3.9 11 15.4 ESE 22 35 12 19 1020.1 1016.3 0.0
10/09:30am 28.8 22.2 -3.4 12 14.7 E 22 33 12 18 1020.4 1016.6 0.0
10/09:00am 27.4 21.0 -4.5 12 14.1 E 20 30 11 16 1020.6 1016.8 0.0
10/08:30am 26.7 20.6 -4.0 13 13.6 ESE 19 32 10 17 1020.5 1016.7 0.0
10/08:00am 25.4 20.5 -3.1 15 12.8 ESE 13 19 7 10 1020.2 1016.4 0.0
10/07:30am 23.6 19.6 -2.1 18 11.5 E 9 13 5 7 1020.1 1016.3 0.0
10/07:00am 20.8 17.9 -1.1 23 9.8 E 4 9 2 5 1019.7 1016.0 0.0
10/06:30am 16.9 14.9 0.1 32 7.4 CALM 0 0 0 0 1019.4 1015.6 0.0
10/06:00am 14.6 11.4 -0.3 36 6.4 SSW 6 6 3 3 1019.3 1015.5 0.0
10/05:30am 14.6 11.5 0.1 37 6.3 WSW 6 7 3 4 1019.2 1015.4 0.0
10/05:00am 14.5 11.8 0.0 37 6.3 W 4 7 2 4 1018.9 1015.1 0.0
10/04:30am 15.7 13.7 -0.1 34 6.9 CALM 0 0 0 0 1018.6 1014.8 0.0
10/04:00am 15.5 13.5 -0.3 34 6.9 CALM 0 0 0 0 1018.5 1014.7 0.0
10/03:30am 15.7 13.6 -0.5 33 7.0 CALM 0 0 0 0 1018.3 1014.5 0.0
10/03:00am 16.7 14.8 0.4 33 7.3 CALM 0 0 0 0 1018.3 1014.5 0.0
10/02:30am 16.5 13.3 -0.2 32 7.3 ESE 6 7 3 4 1018.1 1014.3 0.0
10/02:00am 18.5 14.9 0.6 30 8.1 SSE 9 11 5 6 1018.1 1014.3 0.0
10/01:30am 17.7 14.6 -0.1 30 7.9 SE 6 9 3 5 1018.3 1014.5 0.0
10/01:00am 19.0 15.3 0.1 28 8.5 SE 9 9 5 5 1018.4 1014.6 0.0
10/12:30am 20.0 17.2 -0.1 26 9.1 E 4 7 2 4 1018.6 1014.8 0.0
10/12:00am 20.5 18.5 -0.2 25 9.4 CALM 0 0 0 0 1018.7 1014.9 0.0

Other Formats:

Comma delimited format used in spreadsheet applications
http://www.bom.gov.au/fwo/IDD60801/IDD60801.94326.axf

JavaScript Object Notation format (JSON) in row-major order
http://www.bom.gov.au/fwo/IDD60801/IDD60801.94326.json